Latest Weather Observations for Cowra

IDN60801

Issued at 5:03 pm EST Saturday 2 July 2016 (issued every 30 minutes, with the page automatically refreshed every 10 minutes)

About weather observations | Map of weather stations | Latest weather observations for NSW | Other Formats
Station Details ID: 065111 Name: COWRA AIRPORT AWS Lat: -33.84 Lon: 148.65 Height: 300.4 m
Data from the previous 72 hours. | See also: Recent months at Cowra
Date/Time
EST
Temp
°C
App
Temp
°C
Dew
Point
°C
Rel
Hum
%
Delta-T
°C
Wind Press
QNH
hPa
Press
MSL
hPa
Rain since
9am
mm
Dir  Spd
km/h
Gust
km/h
Spd
kts
Gust
kts
02/05:00pm 10.7 8.7 7.2 79 1.7 SW 7 9 4 5 1026.8 - 0.0
02/04:30pm 11.1 8.2 6.6 74 2.1 WSW 11 13 6 7 1026.8 - 0.0
02/04:00pm 11.4 8.6 6.9 74 2.2 WSW 11 15 6 8 1026.7 - 0.0
02/03:30pm 11.8 7.7 6.1 68 2.7 SW 17 20 9 11 1026.5 - 0.0
02/03:00pm 12.3 8.9 6.1 66 3.0 SSW 13 19 7 10 1026.3 1026.9 0.0
02/02:30pm 12.1 8.6 5.5 64 3.1 S 13 17 7 9 1026.1 - 0.0
02/02:00pm 11.8 8.8 5.9 67 2.8 S 11 15 6 8 1026.3 - 0.0
02/01:30pm 11.9 8.4 5.5 65 3.0 SSW 13 20 7 11 1026.4 - 0.0
02/01:00pm 11.7 8.7 6.0 68 2.7 SW 11 17 6 9 1026.7 - 0.0
02/12:30pm 11.8 8.7 5.4 65 3.0 WSW 11 15 6 8 1027.0 - 0.0
02/12:00pm 11.3 9.2 5.6 68 2.7 W 6 13 3 7 1027.5 1028.1 0.0
02/11:30am 10.9 9.1 5.4 69 2.6 W 4 11 2 6 1027.9 - 0.0
02/11:00am 10.2 8.9 6.0 75 2.0 W 2 7 1 4 1028.2 - 0.0
02/10:30am 9.4 7.6 5.4 76 1.8 SSW 4 9 2 5 1028.4 - 0.0
02/10:00am 8.9 7.9 5.6 80 1.5 CALM 0 6 0 3 1028.4 - 0.0
02/09:30am 8.6 6.9 5.7 82 1.3 SSW 4 7 2 4 1028.4 - 0.0
02/09:00am 8.3 6.3 6.1 86 1.0 SSW 6 7 3 4 1028.2 1028.7 0.4
02/08:30am 7.9 7.1 6.4 90 0.7 CALM 0 6 0 3 1028.0 - 0.4
02/08:00am 7.5 5.3 6.3 92 0.6 SW 7 9 4 5 1027.7 - 0.4
02/07:30am 7.3 4.7 6.1 92 0.6 SW 9 13 5 7 1027.4 - 0.4
02/07:00am 7.1 5.8 6.0 93 0.5 W 2 6 1 3 1026.9 - 0.4
02/06:30am 7.5 5.5 6.3 92 0.6 S 6 7 3 4 1026.9 - 0.4
02/06:00am 7.6 4.6 6.2 91 0.6 WSW 11 13 6 7 1026.5 1027.1 0.4
02/05:30am 7.7 4.7 6.2 90 0.7 WSW 11 15 6 8 1026.3 - 0.4
02/05:00am 7.7 4.4 6.3 91 0.6 SW 13 17 7 9 1026.0 - 0.4
02/04:30am 7.2 4.1 5.7 90 0.7 SW 11 15 6 8 1025.9 - 0.4
02/04:00am 7.7 5.6 6.5 92 0.6 SSW 7 7 4 4 1025.9 - 0.4
02/03:30am 7.8 6.1 7.4 97 0.2 WNW 6 7 3 4 1025.9 - 0.4
02/03:00am 7.7 7.0 7.1 96 0.3 CALM 0 0 0 0 1025.8 1026.3 0.4
02/02:30am 7.8 7.1 6.9 94 0.4 CALM 0 0 0 0 1025.7 - 0.4
02/02:00am 8.1 6.1 7.2 94 0.4 WSW 7 9 4 5 1025.7 - 0.4
02/01:30am 8.0 6.3 7.4 96 0.3 NW 6 9 3 5 1025.7 - 0.4
02/01:00am 8.3 6.0 7.5 95 0.4 W 9 13 5 7 1025.7 - 0.4
02/12:30am 8.3 6.5 7.9 97 0.2 W 7 15 4 8 1025.6 - 0.4
02/12:00am 7.9 6.0 7.5 97 0.2 NNW 7 9 4 5 1025.6 1026.1 0.4
 
Date/Time
EST
Temp
°C
App
Temp
°C
Dew
Point
°C
Rel
Hum
%
Delta-T
°C
Wind Press
QNH
hPa
Press
MSL
hPa
Rain since
9am
mm
Dir  Spd
km/h
Gust
km/h
Spd
kts
Gust
kts
01/11:30pm 7.8 6.8 7.2 96 0.3 N 2 6 1 3 1025.5 - 0.4
01/11:00pm 8.1 6.3 7.3 95 0.4 NNW 6 7 3 4 1025.4 - 0.0
01/10:30pm 8.1 6.1 7.2 94 0.4 N 7 9 4 5 1025.1 - 0.0
01/10:00pm 8.2 6.2 7.1 93 0.5 N 7 9 4 5 1025.1 - 0.0
01/09:30pm 8.2 6.2 7.1 93 0.5 N 7 11 4 6 1025.0 - 0.0
01/09:00pm 8.2 5.8 6.8 91 0.7 N 9 11 5 6 1024.8 1025.3 0.0
01/08:30pm 8.4 5.9 6.5 88 0.9 N 9 13 5 7 1024.7 - 0.0
01/08:00pm 8.4 7.5 6.0 85 1.1 CALM 0 0 0 0 1024.6 - 0.0
01/07:30pm 8.4 7.5 6.0 85 1.1 CALM 0 0 0 0 1024.4 - 0.0
01/07:00pm 8.4 7.5 5.9 84 1.2 CALM 0 0 0 0 1024.2 - 0.0
01/06:30pm 8.5 5.9 6.0 84 1.2 WSW 9 11 5 6 1023.7 - 0.0
01/06:00pm 8.5 4.7 5.6 82 1.3 W 15 19 8 10 1023.3 1023.8 0.0
01/05:30pm 8.7 4.5 5.6 81 1.4 WSW 17 22 9 12 1022.6 - 0.0
01/05:00pm 9.2 4.6 5.6 78 1.7 WSW 19 28 10 15 1022.2 - 0.0
01/04:30pm 9.4 4.6 5.4 76 1.8 WSW 20 28 11 15 1021.8 - 0.0
01/04:00pm 9.5 5.0 5.9 78 1.7 WSW 19 28 10 15 1021.4 - 0.0
01/03:30pm 9.5 4.7 5.5 76 1.8 W 20 28 11 15 1021.2 - 0.0
01/03:00pm 9.7 5.2 5.9 77 1.8 WSW 19 26 10 14 1020.9 1021.4 0.0
01/02:30pm 9.9 4.9 6.4 79 1.7 W 22 28 12 15 1020.8 - 0.0
01/02:00pm 9.0 3.6 6.4 84 1.2 WSW 24 30 13 16 1020.7 - 0.0
01/01:30pm 9.4 4.4 6.3 81 1.5 WSW 22 32 12 17 1020.4 - 0.0
01/01:00pm 8.9 4.2 6.0 82 1.3 WSW 20 32 11 17 1020.3 - 0.0
01/12:30pm 8.5 3.9 6.3 86 1.0 SW 20 26 11 14 1020.2 - 0.0
01/12:00pm 8.6 4.0 5.5 81 1.4 WSW 19 24 10 13 1020.5 1021.1 0.0
01/11:30am 9.2 3.3 5.8 79 1.6 WSW 26 33 14 18 1020.2 - 0.0
01/11:00am 8.6 3.4 5.5 81 1.4 W 22 43 12 23 1020.2 - 0.0
01/10:30am 8.1 3.5 5.4 83 1.2 WNW 19 24 10 13 1019.7 - 0.0
01/10:00am 7.6 3.0 5.6 87 0.9 NW 19 26 10 14 1019.8 - 0.0
01/09:30am 8.0 2.9 6.1 88 0.9 WNW 22 30 12 16 1019.2 - 0.0
01/09:00am 7.2 2.6 5.7 90 0.7 WNW 19 26 10 14 1019.0 1019.3 2.6
01/08:30am 6.7 2.8 5.3 91 0.6 WNW 15 20 8 11 1018.7 - 2.6
01/08:00am 6.7 2.5 5.7 93 0.5 NW 17 24 9 13 1018.2 - 2.6
01/07:30am 6.4 2.2 5.8 96 0.3 NW 17 22 9 12 1017.8 - 2.6
01/07:00am 6.3 3.2 5.6 95 0.3 NW 11 17 6 9 1017.8 - 2.6
01/06:30am 6.5 2.7 5.6 94 0.4 NNW 15 20 8 11 1017.2 - 2.2
01/06:00am 6.1 2.7 5.7 97 0.2 N 13 17 7 9 1016.9 1017.4 2.2
01/05:30am 6.1 3.1 5.8 98 0.1 N 11 13 6 7 1017.0 - 2.2
01/05:00am 5.7 2.6 5.4 98 0.1 N 11 15 6 8 1016.6 - 2.2
01/04:30am 5.5 1.9 5.1 97 0.2 N 13 17 7 9 1016.3 - 2.2
01/04:00am 5.3 2.0 4.3 93 0.4 N 11 15 6 8 1016.4 - 2.2
01/03:30am 5.8 2.4 4.1 89 0.7 N 11 15 6 8 1016.5 - 2.2
01/03:00am 6.2 3.2 3.9 85 1.0 NNW 9 13 5 7 1016.4 1016.9 2.2
01/02:30am 6.7 3.7 3.9 82 1.2 WNW 9 13 5 7 1016.4 - 2.2
01/02:00am 6.6 5.4 4.4 86 1.0 CALM 0 6 0 3 1016.3 - 2.2
01/01:30am 6.6 3.7 4.9 89 0.8 SW 9 11 5 6 1016.3 - 2.2
01/01:00am 6.9 2.2 5.2 89 0.8 WSW 19 28 10 15 1016.4 - 2.2
01/12:30am 8.1 1.9 6.2 88 0.9 W 28 46 15 25 1016.1 - 2.2
01/12:29am 8.2 2.0 6.3 88 0.9 W 28 46 15 25 1016.0 - 2.2
01/12:00am 8.1 2.9 5.6 84 1.1 W 22 30 12 16 1015.4 1015.8 0.8
 
Date/Time
EST
Temp
°C
App
Temp
°C
Dew
Point
°C
Rel
Hum
%
Delta-T
°C
Wind Press
QNH
hPa
Press
MSL
hPa
Rain since
9am
mm
Dir  Spd
km/h
Gust
km/h
Spd
kts
Gust
kts
30/11:30pm 8.6 3.0 5.2 79 1.5 N 24 32 13 17 1014.4 - 0.0
30/11:00pm 8.4 2.4 5.2 80 1.5 N 26 35 14 19 1014.7 - 0.0
30/10:30pm 8.4 2.4 5.2 80 1.5 N 26 35 14 19 1015.5 - 0.0
30/10:00pm 8.0 2.3 5.1 82 1.3 N 24 35 13 19 1015.5 - 0.0
30/09:30pm 7.6 2.7 5.1 84 1.1 N 20 26 11 14 1015.8 - 0.0
30/09:00pm 7.2 1.4 4.5 83 1.2 N 24 32 13 17 1015.8 1016.1 0.0
30/08:30pm 7.3 2.8 4.3 81 1.3 N 17 24 9 13 1016.3 - 0.0
30/08:00pm 7.2 3.1 4.3 82 1.3 N 15 17 8 9 1016.5 - 0.0
30/07:30pm 7.1 4.1 4.1 81 1.3 NNE 9 13 5 7 1016.7 - 0.0
30/07:00pm 7.7 4.4 4.3 79 1.5 N 11 13 6 7 1016.4 - 0.0
30/06:30pm 8.6 5.3 4.4 75 1.9 NNW 11 17 6 9 1016.2 - 0.0
30/06:00pm 8.2 4.1 4.4 77 1.7 NNW 15 20 8 11 1015.6 1015.9 0.0
30/05:30pm 9.1 4.3 4.5 73 2.1 NNW 19 24 10 13 1015.7 - 0.0
30/05:00pm 9.5 4.7 4.5 71 2.3 NNW 19 28 10 15 1015.7 - 0.0
30/04:30pm 9.7 6.2 5.3 74 2.0 N 13 19 7 10 1015.7 - 0.0
30/04:00pm 9.9 5.2 5.1 72 2.2 NNW 19 26 10 14 1016.2 - 0.0
30/03:30pm 10.9 5.7 5.7 70 2.4 NNW 22 32 12 17 1016.1 - 0.0
30/03:00pm 10.6 5.8 5.8 72 2.3 NNW 20 30 11 16 1016.5 1016.9 0.0
30/02:30pm 10.7 6.0 5.9 72 2.3 NNW 20 30 11 16 1017.2 - 0.0
30/02:00pm 10.2 6.1 6.4 77 1.8 NNW 17 22 9 12 1017.4 - 0.0
30/01:30pm 10.3 5.8 6.3 76 1.9 NNW 19 28 10 15 1018.1 - 0.0
30/01:00pm 9.9 4.8 6.2 78 1.7 NNW 22 32 12 17 1018.7 - 0.0
30/12:30pm 9.4 4.8 6.7 83 1.3 NNW 20 28 11 15 1019.5 - 0.0
30/12:00pm 7.1 5.7 5.6 90 0.7 SSW 2 7 1 4 1020.2 1020.6 0.0
30/11:30am 6.8 4.6 5.3 90 0.7 NW 6 9 3 5 1021.2 - 0.0
30/11:00am 6.3 4.0 5.7 96 0.3 NNW 7 13 4 7 1022.0 - 0.0
30/10:30am 5.1 2.3 5.0 99 0.0 N 9 11 5 6 1022.6 - 0.0
30/10:00am 3.8 1.1 3.7 99 0.0 ENE 7 11 4 6 1022.7 - 0.0
30/09:30am 3.0 1.1 2.9 99 0.0 ENE 2 7 1 4 1022.8 - 0.0
30/09:00am 2.2 0.5 2.1 99 0.0 CALM 0 4 0 2 1022.8 1023.2 0.0
30/08:30am 0.5 -2.6 0.4 99 0.0 S 6 9 3 5 1022.6 - 0.0
30/08:00am -0.1 -2.1 -0.2 99 0.0 CALM 0 0 0 0 1022.2 - 0.0
30/07:30am -0.9 -3.0 -1.0 99 0.0 CALM 0 0 0 0 1022.0 - 0.0
30/07:00am -0.8 -2.9 -0.9 99 0.0 CALM 0 0 0 0 1021.7 - 0.0
30/06:30am -0.7 -2.8 -0.8 99 0.0 CALM 0 0 0 0 1021.4 - 0.0
30/06:00am -0.4 -2.5 -0.5 99 0.0 CALM 0 0 0 0 1021.3 1021.6 0.0
30/05:30am -0.2 -2.2 -0.3 99 0.0 CALM 0 6 0 3 1021.2 - 0.0
30/05:00am -0.1 -2.1 -0.2 99 0.0 CALM 0 0 0 0 1021.2 - 0.0
30/04:30am -0.1 -2.5 -0.2 99 0.0 ESE 2 7 1 4 1021.1 - 0.0
30/04:00am 0.2 -1.8 0.1 99 0.0 CALM 0 13 0 7 1021.4 - 0.0
30/03:30am 0.7 -1.2 0.6 99 0.0 CALM 0 4 0 2 1021.9 - 0.0
30/03:00am 1.0 -0.8 0.9 99 0.0 CALM 0 0 0 0 1022.2 1022.6 0.0
30/02:30am 0.9 -2.7 0.8 99 0.0 E 9 11 5 6 1022.4 - 0.0
30/02:00am 1.1 -0.7 1.0 99 0.0 CALM 0 0 0 0 1022.8 - 0.0
30/01:30am 1.4 -0.4 1.3 99 0.0 CALM 0 0 0 0 1022.9 - 0.0
30/01:00am 1.6 -0.2 1.5 99 0.0 CALM 0 0 0 0 1023.1 - 0.0
30/12:30am 1.5 -1.0 1.4 99 0.0 NNE 4 7 2 4 1023.4 - 0.0
30/12:00am 1.6 -0.2 1.3 98 0.1 CALM 0 0 0 0 1023.8 1024.2 0.0
 
Date/Time
EST
Temp
°C
App
Temp
°C
Dew
Point
°C
Rel
Hum
%
Delta-T
°C
Wind Press
QNH
hPa
Press
MSL
hPa
Rain since
9am
mm
Dir  Spd
km/h
Gust
km/h
Spd
kts
Gust
kts
29/11:30pm 2.3 -0.1 2.0 98 0.1 E 4 7 2 4 1024.2 - 0.0
29/11:00pm 2.9 1.0 2.6 98 0.1 ESE 2 7 1 4 1024.5 - 0.0
29/10:30pm 3.7 0.6 3.6 99 0.0 E 9 11 5 6 1024.8 - 0.0
29/10:00pm 3.7 1.1 3.4 98 0.1 ESE 6 9 3 5 1024.9 - 0.0
29/09:30pm 3.9 2.5 3.5 97 0.2 CALM 0 0 0 0 1025.0 - 0.0
29/09:00pm 4.7 2.7 4.4 98 0.1 S 4 6 2 3 1025.1 1025.5 0.0
29/08:30pm 4.9 2.5 4.5 97 0.2 SSW 6 6 3 3 1025.4 - 0.0
29/08:00pm 5.4 4.2 4.5 94 0.4 CALM 0 7 0 4 1025.6 - 0.0
29/07:30pm 6.2 4.7 5.0 92 0.5 E 2 7 1 4 1025.7 - 0.0
29/07:00pm 7.1 4.4 5.6 90 0.7 E 9 11 5 6 1025.5 - 0.0
29/06:30pm 8.0 6.0 6.1 88 0.9 E 6 9 3 5 1025.6 - 0.0
29/06:00pm 8.5 7.7 6.6 88 0.9 CALM 0 0 0 0 1025.6 1026.0 0.0
29/05:30pm 8.9 8.0 6.2 83 1.3 CALM 0 0 0 0 1025.6 - 0.0

Other Formats:

Comma delimited format used in spreadsheet applications
http://www.bom.gov.au/fwo/IDN60801/IDN60801.95721.axf

JavaScript Object Notation format (JSON) in row-major order
http://www.bom.gov.au/fwo/IDN60801/IDN60801.95721.json